Aviation Digital Data Service (ADDS)

Output produced by METARs form (1323 UTC 22 July 2014)
found at http://aviationweather.gov/adds/metars/
 
KMHT 221124Z 2212/2312 00000KT P6SM FEW250 
     FM221600 24006KT P6SM SCT060 
     FM230100 18003KT P6SM FEW250 
     FM230800 VRB03KT 4SM BR FEW250